createdAt,value
2023-02-19T00:01:25.470Z,101464.34
2023-02-19T00:02:57.790Z,101456.34
2023-02-19T00:04:29.515Z,101452.94
2023-02-19T00:06:03.408Z,101453.13
2023-02-19T00:07:35.011Z,101464.53
2023-02-19T00:09:06.589Z,101456.63
2023-02-19T00:10:38.082Z,101453.97
2023-02-19T00:12:09.748Z,101449.75
2023-02-19T00:13:42.107Z,101447.06
2023-02-19T00:15:13.660Z,101448.88
2023-02-19T00:16:45.641Z,101449.72
2023-02-19T00:18:17.165Z,101456.72
2023-02-19T00:19:48.707Z,101465.47
2023-02-19T00:21:22.088Z,101454.94
2023-02-19T00:22:53.594Z,101453.25
2023-02-19T00:24:25.158Z,101447.88
2023-02-19T00:26:01.005Z,101449.75
2023-02-19T00:27:34.836Z,101446.28
2023-02-19T00:29:06.495Z,101442.69
2023-02-19T00:30:38.104Z,101439.25
2023-02-19T00:32:09.706Z,101435.69
2023-02-19T00:33:41.440Z,101437.53
2023-02-19T00:35:13.000Z,101436.91
2023-02-19T00:36:46.056Z,101438.66
2023-02-19T00:38:17.632Z,101438.66
2023-02-19T00:39:49.179Z,101440.41
2023-02-19T00:41:22.690Z,101438.53
2023-02-19T00:42:54.313Z,101434.94
2023-02-19T00:44:25.918Z,101427.88
2023-02-19T00:45:57.552Z,101428.78
2023-02-19T00:47:29.108Z,101427.09
2023-02-19T00:49:00.728Z,101423.81
2023-02-19T00:50:32.338Z,101421.47
2023-02-19T00:52:05.390Z,101435.41
2023-02-19T00:53:37.019Z,101429.91
2023-02-19T00:55:08.568Z,101431.53
2023-02-19T00:56:40.243Z,101431.34
2023-02-19T00:58:11.812Z,101433.97
2023-02-19T00:59:43.555Z,101424.28
2023-02-19T01:01:15.828Z,101434.88
2023-02-19T01:02:47.443Z,101425.03
2023-02-19T01:04:19.059Z,101418.94
2023-02-19T01:05:51.067Z,101418.88
2023-02-19T01:07:24.404Z,101419.03
2023-02-19T01:08:56.449Z,101419.16
2023-02-19T01:10:28.048Z,101420.78
2023-02-19T01:11:59.671Z,101417.97
2023-02-19T01:13:31.530Z,101416.06
2023-02-19T01:15:03.572Z,101417.94
2023-02-19T01:16:35.303Z,101417.09
2023-02-19T01:18:13.520Z,101414.31
2023-02-19T01:19:45.157Z,101418.63
2023-02-19T01:21:17.732Z,101417.97
2023-02-19T01:22:52.621Z,101420.59
2023-02-19T01:24:24.191Z,101421.50
2023-02-19T01:25:55.796Z,101415.34
2023-02-19T01:27:27.367Z,101416.03
2023-02-19T01:28:59.274Z,101419.47
2023-02-19T01:30:30.922Z,101422.03
2023-02-19T01:32:02.624Z,101423.84
2023-02-19T01:33:34.496Z,101421.22
2023-02-19T01:35:06.900Z,101422.03
2023-02-19T01:36:38.860Z,101414.91
2023-02-19T01:38:14.039Z,101430.81
2023-02-19T01:39:45.655Z,101425.50
2023-02-19T01:41:18.257Z,101428.09
2023-02-19T01:42:49.863Z,101418.38
2023-02-19T01:44:40.144Z,101422.81
2023-02-19T01:46:11.728Z,101415.03
2023-02-19T01:47:43.370Z,101415.88
2023-02-19T01:49:18.630Z,101421.22
2023-02-19T01:50:53.553Z,101415.97
2023-02-19T01:52:27.613Z,101427.38
2023-02-19T01:54:02.607Z,101413.38
2023-02-19T01:55:34.865Z,101428.22
2023-02-19T01:57:08.106Z,101431.19
2023-02-19T01:58:40.208Z,101428.88
2023-02-19T02:00:15.164Z,101430.94
2023-02-19T02:01:46.871Z,101429.28
2023-02-19T02:03:19.117Z,101430.19
2023-02-19T02:04:50.822Z,101438.25
2023-02-19T02:06:23.823Z,101435.66
2023-02-19T02:08:14.246Z,101434.78
2023-02-19T02:10:06.122Z,101437.22
2023-02-19T02:11:39.273Z,101434.09
2023-02-19T02:13:10.872Z,101430.00
2023-02-19T02:14:44.335Z,101434.44
2023-02-19T02:16:23.671Z,101440.84
2023-02-19T02:17:57.367Z,101425.75
2023-02-19T02:19:40.540Z,101441.94
2023-02-19T02:21:25.802Z,101452.38
2023-02-19T02:23:00.684Z,101445.34
2023-02-19T02:24:42.294Z,101442.78
2023-02-19T02:26:24.323Z,101437.59
2023-02-19T02:28:02.598Z,101444.09
2023-02-19T02:29:54.690Z,101441.31
2023-02-19T02:31:28.948Z,101433.13
2023-02-19T02:33:04.635Z,101430.56
2023-02-19T02:34:41.082Z,101431.31
2023-02-19T02:36:15.278Z,101424.31
2023-02-19T02:37:48.540Z,101433.03
2023-02-19T02:39:21.908Z,101424.13
2023-02-19T02:40:54.254Z,101423.16
2023-02-19T02:42:28.718Z,101423.22
2023-02-19T02:44:08.343Z,101424.88
2023-02-19T02:45:41.762Z,101428.44
2023-02-19T02:47:44.886Z,101423.94
2023-02-19T02:49:19.815Z,101428.22
2023-02-19T02:50:53.858Z,101430.06
2023-02-19T02:52:44.346Z,101427.53
2023-02-19T02:54:36.937Z,101424.84
2023-02-19T02:56:13.664Z,101433.91
2023-02-19T02:57:45.507Z,101421.69
2023-02-19T02:59:18.900Z,101445.38
2023-02-19T03:01:13.618Z,101443.75
2023-02-19T03:02:45.491Z,101443.81
2023-02-19T03:04:21.511Z,101447.28
2023-02-19T03:05:56.590Z,101444.81
2023-02-19T03:07:31.196Z,101437.09
2023-02-19T03:09:07.791Z,101441.31
2023-02-19T03:10:41.460Z,101444.66
2023-02-19T03:12:33.195Z,101441.03
2023-02-19T03:14:27.094Z,101450.47
2023-02-19T03:16:21.361Z,101451.28
2023-02-19T03:18:13.972Z,101454.91
2023-02-19T03:19:50.011Z,101453.22
2023-02-19T03:21:23.353Z,101460.31
2023-02-19T03:22:56.053Z,101449.91
2023-02-19T03:24:47.997Z,101456.88
2023-02-19T03:26:19.836Z,101466.00
2023-02-19T03:27:57.609Z,101470.28
2023-02-19T03:29:31.800Z,101467.69
2023-02-19T03:31:10.153Z,101474.56
2023-02-19T03:32:44.411Z,101468.34
2023-02-19T03:34:20.675Z,101469.22
2023-02-19T03:35:55.729Z,101470.16
2023-02-19T03:37:30.073Z,101465.72
2023-02-19T03:39:04.395Z,101473.63
2023-02-19T03:40:40.439Z,101471.03
2023-02-19T03:42:18.034Z,101471.81
2023-02-19T03:43:52.673Z,101473.47
2023-02-19T03:45:29.877Z,101466.44
2023-02-19T03:47:06.923Z,101473.66
2023-02-19T03:48:46.268Z,101480.00
2023-02-19T03:50:19.644Z,101475.66
2023-02-19T03:51:55.212Z,101476.41
2023-02-19T03:53:29.973Z,101478.72
2023-02-19T03:55:04.539Z,101473.41
2023-02-19T03:56:39.402Z,101483.91
2023-02-19T03:58:17.603Z,101486.56
2023-02-19T03:59:51.622Z,101489.00
2023-02-19T04:01:27.934Z,101489.97
2023-02-19T04:03:05.695Z,101486.41
2023-02-19T04:04:39.640Z,101493.22
2023-02-19T04:06:13.871Z,101488.81
2023-02-19T04:07:48.014Z,101501.25
2023-02-19T04:09:25.595Z,101492.41
2023-02-19T04:11:04.635Z,101499.28
2023-02-19T04:12:40.286Z,101499.91
2023-02-19T04:14:14.485Z,101506.88
2023-02-19T04:15:47.835Z,101499.88
2023-02-19T04:17:26.527Z,101513.88
2023-02-19T04:19:02.344Z,101510.44
2023-02-19T04:20:36.388Z,101518.53
2023-02-19T04:22:09.660Z,101511.44
2023-02-19T04:23:43.364Z,101518.41
2023-02-19T04:25:15.072Z,101523.72
2023-02-19T04:26:47.138Z,101524.03
2023-02-19T04:28:18.941Z,101525.00
2023-02-19T04:29:50.512Z,101529.34
2023-02-19T04:31:23.405Z,101531.06
2023-02-19T04:32:55.248Z,101527.59
2023-02-19T04:34:28.219Z,101531.19
2023-02-19T04:36:00.121Z,101524.34
2023-02-19T04:37:31.694Z,101533.22
2023-02-19T04:39:03.321Z,101528.06
2023-02-19T04:40:34.871Z,101535.88
2023-02-19T04:42:07.689Z,101535.75
2023-02-19T04:43:39.269Z,101531.47
2023-02-19T04:45:10.849Z,101546.47
2023-02-19T04:46:44.576Z,101550.00
2023-02-19T04:48:16.167Z,101544.81
2023-02-19T04:49:51.198Z,101558.19
2023-02-19T04:51:24.507Z,101553.84
2023-02-19T04:52:56.412Z,101556.38
2023-02-19T04:54:27.944Z,101547.56
2023-02-19T04:56:05.986Z,101557.47
2023-02-19T04:57:37.539Z,101561.03
2023-02-19T04:59:09.793Z,101554.78
2023-02-19T05:00:41.416Z,101563.44
2023-02-19T05:02:12.971Z,101558.25
2023-02-19T05:03:44.762Z,101565.31
2023-02-19T05:05:17.892Z,101563.56
2023-02-19T05:06:49.821Z,101572.28
2023-02-19T05:08:21.606Z,101568.75
2023-02-19T05:09:53.156Z,101569.56
2023-02-19T05:11:24.893Z,101574.84
2023-02-19T05:12:58.025Z,101575.63
2023-02-19T05:14:29.920Z,101573.06
2023-02-19T05:16:02.428Z,101585.53
2023-02-19T05:17:34.509Z,101581.41
2023-02-19T05:19:06.109Z,101583.97
2023-02-19T05:20:39.064Z,101584.84
2023-02-19T05:22:10.592Z,101588.41
2023-02-19T05:23:42.525Z,101591.00
2023-02-19T05:25:14.162Z,101589.25
2023-02-19T05:26:45.743Z,101597.19
2023-02-19T05:28:17.579Z,101601.66
2023-02-19T05:29:49.132Z,101607.72
2023-02-19T05:31:21.198Z,101611.06
2023-02-19T05:32:52.885Z,101597.00
2023-02-19T05:34:24.390Z,101599.78
2023-02-19T05:35:57.324Z,101606.06
2023-02-19T05:37:28.968Z,101613.13
2023-02-19T05:39:00.659Z,101607.94
2023-02-19T05:40:32.196Z,101611.38
2023-02-19T05:42:03.888Z,101614.06
2023-02-19T05:43:35.534Z,101617.66
2023-02-19T05:45:07.671Z,101609.78
2023-02-19T05:46:39.363Z,101613.44
2023-02-19T05:48:10.997Z,101625.75
2023-02-19T05:49:42.549Z,101631.84
2023-02-19T05:51:16.593Z,101634.47
2023-02-19T05:52:48.170Z,101630.97
2023-02-19T05:54:19.678Z,101630.09
2023-02-19T05:55:51.209Z,101627.47
2023-02-19T05:57:22.803Z,101629.13
2023-02-19T05:58:54.841Z,101628.13
2023-02-19T06:00:27.350Z,101625.44
2023-02-19T06:01:58.938Z,101626.63
2023-02-19T06:03:30.511Z,101635.59
2023-02-19T06:05:02.218Z,101639.09
2023-02-19T06:06:35.254Z,101639.09
2023-02-19T06:08:06.869Z,101634.56
2023-02-19T06:09:38.412Z,101637.19
2023-02-19T06:11:10.391Z,101648.72
2023-02-19T06:12:42.056Z,101638.94
2023-02-19T06:14:13.971Z,101641.34
2023-02-19T06:15:45.583Z,101637.75
2023-02-19T06:17:17.494Z,101642.31
2023-02-19T06:18:49.477Z,101646.72
2023-02-19T06:20:21.025Z,101651.06
2023-02-19T06:21:53.943Z,101640.63
2023-02-19T06:23:27.438Z,101653.16
2023-02-19T06:24:58.942Z,101651.50
2023-02-19T06:26:30.490Z,101656.72
2023-02-19T06:28:02.089Z,101659.25
2023-02-19T06:29:33.687Z,101650.41
2023-02-19T06:31:05.547Z,101655.53
2023-02-19T06:32:37.210Z,101650.16
2023-02-19T06:34:08.743Z,101662.28
2023-02-19T06:35:40.319Z,101661.59
2023-02-19T06:37:13.195Z,101664.28
2023-02-19T06:38:44.744Z,101667.81
2023-02-19T06:40:16.734Z,101666.16
2023-02-19T06:41:48.335Z,101661.75
2023-02-19T06:43:19.883Z,101681.94
2023-02-19T06:44:51.443Z,101677.69
2023-02-19T06:46:22.994Z,101675.03
2023-02-19T06:47:54.607Z,101678.44
2023-02-19T06:49:26.290Z,101680.91
2023-02-19T06:50:58.152Z,101679.13
2023-02-19T06:52:31.122Z,101672.84
2023-02-19T06:54:02.721Z,101681.66
2023-02-19T06:55:34.262Z,101685.25
2023-02-19T06:57:05.832Z,101691.44
2023-02-19T06:58:37.483Z,101694.94
2023-02-19T07:00:10.127Z,101694.06
2023-02-19T07:01:41.691Z,101703.75
2023-02-19T07:03:13.251Z,101695.03
2023-02-19T07:04:44.791Z,101708.16
2023-02-19T07:06:16.350Z,101715.41
2023-02-19T07:07:49.464Z,101724.28
2023-02-19T07:09:21.321Z,101717.31
2023-02-19T07:10:56.537Z,101724.28
2023-02-19T07:12:28.146Z,101727.81
2023-02-19T07:14:00.868Z,101717.38
2023-02-19T07:15:32.452Z,101721.03
2023-02-19T07:17:03.991Z,101717.72
2023-02-19T07:18:35.566Z,101718.72
2023-02-19T07:20:07.256Z,101726.44
2023-02-19T07:21:39.128Z,101728.84
2023-02-19T07:23:12.087Z,101727.91
2023-02-19T07:24:43.655Z,101731.41
2023-02-19T07:26:16.509Z,101738.28
2023-02-19T07:27:48.098Z,101739.03
2023-02-19T07:29:19.709Z,101741.53
2023-02-19T07:30:51.320Z,101746.78
2023-02-19T07:32:22.852Z,101750.31
2023-02-19T07:33:55.002Z,101758.13
2023-02-19T07:35:26.847Z,101752.88
2023-02-19T07:36:58.415Z,101756.31
2023-02-19T07:38:31.391Z,101764.28
2023-02-19T07:40:03.453Z,101766.13
2023-02-19T07:41:35.071Z,101762.72
2023-02-19T07:43:06.591Z,101772.28
2023-02-19T07:44:38.152Z,101764.41
2023-02-19T07:46:11.450Z,101780.34
2023-02-19T07:47:43.766Z,101783.81
2023-02-19T07:49:15.432Z,101780.28
2023-02-19T07:50:51.268Z,101774.91
2023-02-19T07:52:22.925Z,101786.31
2023-02-19T07:53:55.833Z,101788.25
2023-02-19T07:55:27.382Z,101789.13
2023-02-19T07:56:59.754Z,101793.56
2023-02-19T07:58:31.948Z,101796.28
2023-02-19T08:00:03.795Z,101799.81
2023-02-19T08:02:02.825Z,101794.59
2023-02-19T08:03:34.476Z,101806.00
2023-02-19T08:05:06.542Z,101801.50
2023-02-19T08:06:38.630Z,101811.09
2023-02-19T08:08:11.139Z,101810.22
2023-02-19T08:09:44.190Z,101801.31
2023-02-19T08:11:34.024Z,101813.69
2023-02-19T08:13:22.394Z,101818.88
2023-02-19T08:14:53.951Z,101816.97
2023-02-19T08:16:41.934Z,101815.19
2023-02-19T08:18:14.933Z,101816.78
2023-02-19T08:19:46.556Z,101810.56
2023-02-19T08:21:18.393Z,101810.53
2023-02-19T08:22:50.042Z,101817.56
2023-02-19T08:24:21.607Z,101814.91
2023-02-19T08:25:57.270Z,101817.50
2023-02-19T08:27:28.859Z,101819.03
2023-02-19T08:29:00.566Z,101836.63
2023-02-19T08:30:33.393Z,101835.91
2023-02-19T08:32:05.263Z,101833.31
2023-02-19T08:33:37.702Z,101836.03
2023-02-19T08:35:09.371Z,101839.38
2023-02-19T08:36:40.968Z,101841.13
2023-02-19T08:38:13.415Z,101833.16
2023-02-19T08:39:44.984Z,101834.19
2023-02-19T08:41:17.967Z,101839.41
2023-02-19T08:42:49.545Z,101832.47
2023-02-19T08:44:21.307Z,101834.22
2023-02-19T08:45:53.671Z,101836.81
2023-02-19T08:47:25.508Z,101837.78
2023-02-19T08:48:57.049Z,101830.59
2023-02-19T08:50:28.637Z,101831.31
2023-02-19T08:52:00.223Z,101825.78
2023-02-19T08:53:32.464Z,101827.53
2023-02-19T08:55:04.149Z,101839.03
2023-02-19T08:56:37.298Z,101838.69
2023-02-19T08:58:10.443Z,101849.25
2023-02-19T08:59:42.093Z,101841.19
2023-02-19T09:01:15.286Z,101840.28
2023-02-19T09:02:47.062Z,101838.59
2023-02-19T09:04:18.747Z,101847.25
2023-02-19T09:05:52.262Z,101842.31
2023-02-19T09:07:23.830Z,101841.63
2023-02-19T09:08:55.440Z,101845.94
2023-02-19T09:10:27.030Z,101845.94
2023-02-19T09:11:59.946Z,101849.34
2023-02-19T09:13:31.594Z,101849.34
2023-02-19T09:15:03.799Z,101847.41
2023-02-19T09:16:35.489Z,101859.63
2023-02-19T09:18:07.114Z,101864.75
2023-02-19T09:19:38.897Z,101869.38
2023-02-19T09:21:10.971Z,101863.06
2023-02-19T09:22:42.768Z,101867.22
2023-02-19T09:24:14.635Z,101871.63
2023-02-19T09:25:46.329Z,101871.03
2023-02-19T09:27:19.831Z,101873.06
2023-02-19T09:28:51.458Z,101880.13
2023-02-19T09:30:23.423Z,101885.41
2023-02-19T09:31:58.873Z,101883.56
2023-02-19T09:33:30.520Z,101880.97
2023-02-19T09:35:02.115Z,101888.09
2023-02-19T09:36:33.851Z,101892.59
2023-02-19T09:38:05.495Z,101889.97
2023-02-19T09:39:37.135Z,101889.91
2023-02-19T09:41:44.797Z,101892.44
2023-02-19T09:43:20.619Z,101891.56
2023-02-19T09:44:53.171Z,101901.19
2023-02-19T09:46:29.037Z,101899.38
2023-02-19T09:48:00.740Z,101895.94
2023-02-19T09:49:33.943Z,101893.72
2023-02-19T09:51:09.496Z,101890.06
2023-02-19T09:52:44.102Z,101892.69
2023-02-19T09:54:20.034Z,101898.91
2023-02-19T09:55:52.470Z,101897.97
2023-02-19T09:57:25.782Z,101907.41
2023-02-19T09:58:59.514Z,101896.94
2023-02-19T10:00:32.892Z,101908.53
2023-02-19T10:02:05.456Z,101910.25
2023-02-19T10:03:39.267Z,101908.53
2023-02-19T10:05:12.741Z,101901.47
2023-02-19T10:06:44.483Z,101914.66
2023-02-19T10:08:18.818Z,101934.09
2023-02-19T10:09:52.706Z,101937.03
2023-02-19T10:11:25.796Z,101934.59
2023-02-19T10:13:02.020Z,101944.50
2023-02-19T10:14:37.437Z,101954.13
2023-02-19T10:16:15.342Z,101951.47
2023-02-19T10:17:46.945Z,101953.84
2023-02-19T10:19:18.516Z,101968.72
2023-02-19T10:20:51.319Z,101973.41
2023-02-19T10:22:22.996Z,101981.44
2023-02-19T10:23:55.848Z,101979.66
2023-02-19T10:25:27.668Z,101966.31
2023-02-19T10:26:59.240Z,101966.00
2023-02-19T10:28:33.597Z,101965.78
2023-02-19T10:30:07.356Z,101967.06
2023-02-19T10:31:39.529Z,101968.56
2023-02-19T10:33:12.876Z,101974.41
2023-02-19T10:34:44.581Z,101974.78
2023-02-19T10:36:20.046Z,101978.38
2023-02-19T10:37:52.469Z,101986.41
2023-02-19T10:39:37.684Z,101989.25
2023-02-19T10:41:13.410Z,101990.72
2023-02-19T10:42:46.407Z,101994.97
2023-02-19T10:44:18.852Z,101988.47
2023-02-19T10:45:52.986Z,101995.56
2023-02-19T10:47:26.308Z,101998.16
2023-02-19T10:48:59.330Z,102001.03
2023-02-19T10:50:31.749Z,102001.03
2023-02-19T10:52:17.430Z,102001.78
2023-02-19T10:53:50.343Z,102005.09
2023-02-19T10:55:26.701Z,102001.25
2023-02-19T10:57:13.136Z,102005.41
2023-02-19T10:58:45.042Z,102016.44
2023-02-19T11:00:22.719Z,102012.13
2023-02-19T11:01:57.347Z,102011.16
2023-02-19T11:03:29.457Z,102013.81
2023-02-19T11:05:16.105Z,102016.63
2023-02-19T11:06:48.172Z,102014.38
2023-02-19T11:08:22.311Z,102027.06
2023-02-19T11:09:54.026Z,102026.41
2023-02-19T11:11:30.688Z,102020.88
2023-02-19T11:13:04.060Z,102024.97
2023-02-19T11:14:35.928Z,102014.38
2023-02-19T11:16:07.556Z,102024.84
2023-02-19T11:17:41.950Z,102025.03
2023-02-19T11:19:31.085Z,102029.47
2023-02-19T11:21:04.101Z,102017.19
2023-02-19T11:22:37.814Z,102022.25
2023-02-19T11:24:21.615Z,102021.25
2023-02-19T11:25:54.317Z,102027.47
2023-02-19T11:27:25.959Z,102012.59
2023-02-19T11:28:58.482Z,102012.38
2023-02-19T11:30:37.653Z,102019.03
2023-02-19T11:32:26.262Z,102024.13
2023-02-19T11:34:00.223Z,102015.34
2023-02-19T11:35:31.794Z,102012.78
2023-02-19T11:37:13.479Z,102013.53
2023-02-19T11:38:45.121Z,102002.94
2023-02-19T11:40:16.768Z,102006.75
2023-02-19T11:41:56.406Z,102000.31
2023-02-19T11:43:40.041Z,101995.69
2023-02-19T11:45:25.514Z,101997.97
2023-02-19T11:47:02.951Z,101990.06
2023-02-19T11:48:41.845Z,101990.31
2023-02-19T11:50:19.396Z,101998.19
2023-02-19T11:52:10.903Z,101995.59
2023-02-19T11:53:48.701Z,101998.91
2023-02-19T11:55:24.180Z,101995.72
2023-02-19T11:57:03.051Z,101994.97
2023-02-19T11:58:42.964Z,101990.59
2023-02-19T12:00:25.205Z,101992.31
2023-02-19T12:02:07.865Z,101988.88
2023-02-19T12:03:48.310Z,101989.06
2023-02-19T12:05:29.656Z,101992.50
2023-02-19T12:07:09.100Z,101985.59
2023-02-19T12:08:52.187Z,101991.97
2023-02-19T12:10:26.654Z,101985.84
2023-02-19T12:12:04.395Z,101983.03
2023-02-19T12:13:43.829Z,101991.53
2023-02-19T12:15:24.850Z,101991.41
2023-02-19T12:17:01.935Z,101990.75
2023-02-19T12:18:48.468Z,102001.34
2023-02-19T12:20:26.665Z,102005.75
2023-02-19T12:22:10.975Z,101998.72
2023-02-19T12:23:53.123Z,102004.75
2023-02-19T12:25:38.431Z,102013.41
2023-02-19T12:27:17.137Z,102010.59
2023-02-19T12:29:00.744Z,102020.00
2023-02-19T12:30:40.485Z,102026.47
2023-02-19T12:32:16.698Z,102010.78
2023-02-19T12:34:05.902Z,102020.44
2023-02-19T12:35:47.709Z,102014.31
2023-02-19T12:37:30.455Z,102017.88
2023-02-19T12:39:07.210Z,102028.09
2023-02-19T12:40:48.189Z,102015.91
2023-02-19T12:42:25.138Z,102024.66
2023-02-19T12:44:00.239Z,102031.47
2023-02-19T12:45:35.729Z,102017.34
2023-02-19T12:47:13.070Z,102019.88
2023-02-19T12:48:47.472Z,102010.81
2023-02-19T12:50:21.601Z,102010.81
2023-02-19T12:51:57.463Z,102011.53
2023-02-19T12:53:35.569Z,102018.25
2023-02-19T12:55:13.913Z,102014.75
2023-02-19T12:56:48.667Z,102006.91
2023-02-19T12:58:23.651Z,102013.41
2023-02-19T13:00:00.204Z,102009.00
2023-02-19T13:01:35.193Z,102026.72
2023-02-19T13:03:12.936Z,102017.13
2023-02-19T13:04:47.362Z,102030.44
2023-02-19T13:06:24.270Z,102025.13
2023-02-19T13:07:58.507Z,102024.34
2023-02-19T13:09:35.683Z,102021.78
2023-02-19T13:11:10.828Z,102023.66
2023-02-19T13:12:44.146Z,102023.72
2023-02-19T13:14:20.126Z,102024.66
2023-02-19T13:15:53.671Z,102029.16
2023-02-19T13:17:27.630Z,102029.53
2023-02-19T13:19:00.502Z,102038.47
2023-02-19T13:20:34.485Z,102034.28
2023-02-19T13:22:34.162Z,102032.41
2023-02-19T13:24:08.737Z,102034.94
2023-02-19T13:25:48.219Z,102039.41
2023-02-19T13:27:37.167Z,102037.59
2023-02-19T13:29:15.486Z,102027.91
2023-02-19T13:31:02.471Z,102033.16
2023-02-19T13:32:44.681Z,102037.53
2023-02-19T13:34:22.514Z,102037.38
2023-02-19T13:36:05.898Z,102045.19
2023-02-19T13:37:37.650Z,102031.91
2023-02-19T13:40:54.706Z,102049.03
2023-02-19T13:42:27.240Z,102043.09
2023-02-19T13:44:01.296Z,102047.78
2023-02-19T13:45:34.622Z,102054.97
2023-02-19T13:47:26.151Z,102057.44
2023-02-19T13:49:16.526Z,102050.88
2023-02-19T13:50:48.078Z,102049.63
2023-02-19T13:52:38.019Z,102046.78
2023-02-19T13:54:24.142Z,102055.31
2023-02-19T13:55:57.084Z,102057.13
2023-02-19T13:57:29.099Z,102053.66
2023-02-19T13:59:13.487Z,102050.94
2023-02-19T14:00:49.462Z,102057.19
2023-02-19T14:02:26.686Z,102057.53
2023-02-19T14:04:07.360Z,102067.34
2023-02-19T14:05:58.786Z,102065.41
2023-02-19T14:07:45.246Z,102077.38
2023-02-19T14:09:31.624Z,102079.03
2023-02-19T14:11:05.406Z,102078.78
2023-02-19T14:12:37.454Z,102075.91
2023-02-19T14:14:24.605Z,102075.78
2023-02-19T14:15:56.263Z,102082.56
2023-02-19T14:17:28.570Z,102078.00
2023-02-19T14:19:00.126Z,102077.69
2023-02-19T14:20:42.149Z,102086.16
2023-02-19T14:22:32.313Z,102087.75
2023-02-19T14:24:04.490Z,102089.69
2023-02-19T14:25:47.542Z,102087.47
2023-02-19T14:27:20.991Z,102095.41
2023-02-19T14:28:53.099Z,102104.28
2023-02-19T14:30:24.751Z,102105.28
2023-02-19T14:31:57.617Z,102098.34
2023-02-19T14:33:30.304Z,102100.34
2023-02-19T14:35:01.928Z,102097.91
2023-02-19T14:36:35.881Z,102105.13
2023-02-19T14:38:14.176Z,102102.59
2023-02-19T14:39:46.956Z,102105.38
2023-02-19T14:41:20.130Z,102102.81
2023-02-19T14:42:57.269Z,102109.69
2023-02-19T14:44:30.160Z,102109.59
2023-02-19T14:46:04.446Z,102109.38
2023-02-19T14:47:37.048Z,102110.03
2023-02-19T14:49:14.758Z,102115.91
2023-02-19T14:50:48.171Z,102116.59
2023-02-19T14:52:23.431Z,102112.00
2023-02-19T14:53:55.719Z,102114.47
2023-02-19T14:55:29.546Z,102115.25
2023-02-19T14:57:02.871Z,102118.81
2023-02-19T14:58:36.988Z,102116.44
2023-02-19T15:00:21.558Z,102115.91
2023-02-19T15:02:00.498Z,102118.69
2023-02-19T15:03:34.318Z,102114.63
2023-02-19T15:05:14.559Z,102118.31
2023-02-19T15:06:46.170Z,102114.00
2023-02-19T15:08:22.179Z,102108.75
2023-02-19T15:09:57.093Z,102112.06
2023-02-19T15:11:31.922Z,102107.59
2023-02-19T15:13:05.143Z,102096.94
2023-02-19T15:14:39.374Z,102099.41
2023-02-19T15:16:11.196Z,102092.25
2023-02-19T15:17:42.817Z,102088.69
2023-02-19T15:19:16.334Z,102099.09
2023-02-19T15:20:48.682Z,102085.81
2023-02-19T15:22:21.608Z,102088.47
2023-02-19T15:23:54.780Z,102077.91
2023-02-19T15:25:29.826Z,102072.75
2023-02-19T15:27:01.484Z,102081.56
2023-02-19T15:28:34.288Z,102071.78
2023-02-19T15:30:18.763Z,102073.44
2023-02-19T15:31:51.330Z,102068.16
2023-02-19T15:33:23.073Z,102063.81
2023-02-19T15:34:55.485Z,102062.00
2023-02-19T15:36:29.911Z,102065.56
2023-02-19T15:38:01.515Z,102047.31
2023-02-19T15:39:34.447Z,102052.69
2023-02-19T15:41:06.082Z,102046.72
2023-02-19T15:42:38.107Z,102043.19
2023-02-19T15:44:15.113Z,102047.66
2023-02-19T15:45:48.598Z,102035.47
2023-02-19T15:47:24.595Z,102033.00
2023-02-19T15:49:00.856Z,102037.47
2023-02-19T15:50:33.648Z,102045.38
2023-02-19T15:52:07.509Z,102040.16
2023-02-19T15:53:41.656Z,102040.06
2023-02-19T15:55:22.681Z,102054.00
2023-02-19T15:56:56.328Z,102054.88
2023-02-19T15:58:31.192Z,102050.41
2023-02-19T16:00:06.034Z,102061.03
2023-02-19T16:01:46.304Z,102053.22
2023-02-19T16:03:19.865Z,102059.41
2023-02-19T16:04:51.496Z,102054.13
2023-02-19T16:06:24.017Z,102055.19
2023-02-19T16:08:06.045Z,102058.28
2023-02-19T16:09:38.503Z,102060.16
2023-02-19T16:11:25.025Z,102075.13
2023-02-19T16:13:00.701Z,102076.00
2023-02-19T16:14:33.471Z,102075.94
2023-02-19T16:16:15.326Z,102088.44
2023-02-19T16:17:48.666Z,102094.69
2023-02-19T16:19:21.738Z,102093.91
2023-02-19T16:20:53.414Z,102096.56
2023-02-19T16:22:26.690Z,102104.56
2023-02-19T16:24:04.097Z,102106.44
2023-02-19T16:25:41.781Z,102106.63
2023-02-19T16:27:14.464Z,102114.75
2023-02-19T16:28:56.052Z,102113.00
2023-02-19T16:30:29.936Z,102112.31
2023-02-19T16:32:02.834Z,102118.00
2023-02-19T16:33:37.522Z,102112.00
2023-02-19T16:35:23.900Z,102116.50
2023-02-19T16:36:55.412Z,102127.03
2023-02-19T16:38:27.006Z,102120.91
2023-02-19T16:40:21.658Z,102135.13
2023-02-19T16:42:14.561Z,102131.22
2023-02-19T16:43:46.169Z,102125.97
2023-02-19T16:45:17.837Z,102130.44
2023-02-19T16:46:50.030Z,102126.88
2023-02-19T16:48:22.193Z,102131.25
2023-02-19T16:49:55.793Z,102140.16
2023-02-19T16:51:27.828Z,102142.75
2023-02-19T16:53:00.235Z,102157.66
2023-02-19T16:54:31.898Z,102148.84
2023-02-19T16:56:03.928Z,102159.44
2023-02-19T16:57:35.481Z,102158.59
2023-02-19T16:59:07.958Z,102163.84
2023-02-19T17:00:40.347Z,102182.25
2023-02-19T17:02:16.300Z,102181.34
2023-02-19T17:03:48.350Z,102183.22
2023-02-19T17:05:22.168Z,102189.34
2023-02-19T17:06:53.743Z,102193.66
2023-02-19T17:08:31.305Z,102192.03
2023-02-19T17:10:02.997Z,102200.84
2023-02-19T17:11:34.889Z,102192.06
2023-02-19T17:13:06.575Z,102209.63
2023-02-19T17:14:38.512Z,102202.63
2023-02-19T17:16:16.924Z,102203.53
2023-02-19T17:17:49.556Z,102208.66
2023-02-19T17:19:22.536Z,102216.53
2023-02-19T17:21:01.574Z,102213.03
2023-02-19T17:22:33.568Z,102216.59
2023-02-19T17:24:05.568Z,102222.88
2023-02-19T17:25:37.284Z,102230.84
2023-02-19T17:27:10.520Z,102222.19
2023-02-19T17:28:42.039Z,102230.28
2023-02-19T17:30:16.624Z,102228.53
2023-02-19T17:31:51.905Z,102215.28
2023-02-19T17:33:23.616Z,102218.69
2023-02-19T17:34:55.210Z,102217.78
2023-02-19T17:36:31.754Z,102215.94
2023-02-19T17:38:09.463Z,102224.59
2023-02-19T17:39:41.112Z,102218.44
2023-02-19T17:41:12.915Z,102220.25
2023-02-19T17:42:44.569Z,102226.41
2023-02-19T17:44:16.214Z,102222.91
2023-02-19T17:45:47.859Z,102230.75
2023-02-19T17:47:19.505Z,102227.34
2023-02-19T17:48:51.488Z,102224.66
2023-02-19T17:50:24.189Z,102228.16
2023-02-19T17:51:57.174Z,102223.88
2023-02-19T17:53:28.926Z,102230.91
2023-02-19T17:55:00.516Z,102231.81
2023-02-19T17:56:32.177Z,102239.69
2023-02-19T17:58:03.807Z,102237.03
2023-02-19T17:59:35.738Z,102244.91
2023-02-19T18:01:07.403Z,102244.81
2023-02-19T18:02:39.062Z,102245.81
2023-02-19T18:04:10.941Z,102251.06